sensor_id;sensor_type;location;lat;lon;timestamp;pressure;altitude;pressure_sealevel;temperature;humidity
5679;BME280;2862;52.560;13.566;2023-02-28T00:00:05;102260.38;;;1.49;82.01
5679;BME280;2862;52.560;13.566;2023-02-28T00:10:14;102262.25;;;1.44;82.19
5679;BME280;2862;52.560;13.566;2023-02-28T00:20:22;102266.75;;;1.37;82.53
5679;BME280;2862;52.560;13.566;2023-02-28T00:30:26;102264.66;;;1.54;82.00
5679;BME280;2862;52.560;13.566;2023-02-28T00:40:30;102263.47;;;1.69;80.92
5679;BME280;2862;52.560;13.566;2023-02-28T00:50:33;102268.41;;;1.43;82.19
5679;BME280;2862;52.560;13.566;2023-02-28T01:00:37;102270.09;;;1.47;81.35
5679;BME280;2862;52.560;13.566;2023-02-28T01:10:41;102267.41;;;1.50;81.27
5679;BME280;2862;52.560;13.566;2023-02-28T01:20:45;102258.00;;;1.38;81.27
5679;BME280;2862;52.560;13.566;2023-02-28T01:30:50;102251.31;;;1.19;82.07
5679;BME280;2862;52.560;13.566;2023-02-28T01:40:55;102254.59;;;0.85;84.13
5679;BME280;2862;52.560;13.566;2023-02-28T01:51:01;102262.47;;;0.88;84.24
5679;BME280;2862;52.560;13.566;2023-02-28T02:01:07;102257.53;;;0.70;85.25
5679;BME280;2862;52.560;13.566;2023-02-28T02:11:11;102249.84;;;0.56;86.14
5679;BME280;2862;52.560;13.566;2023-02-28T02:32:19;102249.19;;;0.43;86.34
5679;BME280;2862;52.560;13.566;2023-02-28T02:42:36;102259.78;;;0.40;86.61
5679;BME280;2862;52.560;13.566;2023-02-28T02:52:46;102254.53;;;0.39;85.79
5679;BME280;2862;52.560;13.566;2023-02-28T03:02:54;102247.69;;;0.30;85.83
5679;BME280;2862;52.560;13.566;2023-02-28T03:13:07;102255.63;;;0.25;86.16
5679;BME280;2862;52.560;13.566;2023-02-28T03:23:18;102262.72;;;0.20;86.06
5679;BME280;2862;52.560;13.566;2023-02-28T03:33:26;102268.88;;;0.19;86.17
5679;BME280;2862;52.560;13.566;2023-02-28T03:43:36;102266.75;;;-0.14;87.41
5679;BME280;2862;52.560;13.566;2023-02-28T03:53:43;102265.75;;;-0.07;87.08
5679;BME280;2862;52.560;13.566;2023-02-28T04:03:50;102268.38;;;-0.07;86.85
5679;BME280;2862;52.560;13.566;2023-02-28T04:13:53;102280.16;;;-0.33;88.17
5679;BME280;2862;52.560;13.566;2023-02-28T04:23:58;102286.47;;;-0.49;89.21
5679;BME280;2862;52.560;13.566;2023-02-28T04:34:02;102284.69;;;-0.45;88.64
5679;BME280;2862;52.560;13.566;2023-02-28T04:44:07;102285.50;;;-0.42;88.06
5679;BME280;2862;52.560;13.566;2023-02-28T04:54:11;102283.88;;;-0.50;87.89
5679;BME280;2862;52.560;13.566;2023-02-28T05:04:16;102292.66;;;-0.51;88.27
5679;BME280;2862;52.560;13.566;2023-02-28T05:14:20;102297.03;;;-0.54;88.01
5679;BME280;2862;52.560;13.566;2023-02-28T05:24:24;102309.34;;;-0.59;88.02
5679;BME280;2862;52.560;13.566;2023-02-28T05:34:27;102314.69;;;-0.65;88.10
5679;BME280;2862;52.560;13.566;2023-02-28T05:44:31;102319.03;;;-0.64;87.79
5679;BME280;2862;52.560;13.566;2023-02-28T05:54:34;102321.63;;;-0.59;87.87
5679;BME280;2862;52.560;13.566;2023-02-28T06:04:39;102332.81;;;-0.43;86.29
5679;BME280;2862;52.560;13.566;2023-02-28T06:14:43;102325.59;;;-0.26;86.27
5679;BME280;2862;52.560;13.566;2023-02-28T06:24:47;102323.72;;;2.63;74.67
5679;BME280;2862;52.560;13.566;2023-02-28T06:34:51;102327.81;;;7.57;56.60
5679;BME280;2862;52.560;13.566;2023-02-28T06:44:56;102329.91;;;8.98;50.30
5679;BME280;2862;52.560;13.566;2023-02-28T06:54:59;102334.78;;;8.54;51.63
5679;BME280;2862;52.560;13.566;2023-02-28T07:05:05;102348.56;;;8.07;52.07
5679;BME280;2862;52.560;13.566;2023-02-28T07:15:09;102351.81;;;7.56;51.68
5679;BME280;2862;52.560;13.566;2023-02-28T07:25:13;102348.94;;;8.56;51.01
5679;BME280;2862;52.560;13.566;2023-02-28T07:35:17;102346.16;;;8.40;55.16
5679;BME280;2862;52.560;13.566;2023-02-28T07:45:22;102361.66;;;8.31;48.72
5679;BME280;2862;52.560;13.566;2023-02-28T07:55:25;102361.47;;;7.97;50.67
5679;BME280;2862;52.560;13.566;2023-02-28T08:05:29;102367.22;;;7.29;50.59
5679;BME280;2862;52.560;13.566;2023-02-28T08:15:32;102372.03;;;7.39;49.63
5679;BME280;2862;52.560;13.566;2023-02-28T08:25:37;102372.97;;;6.76;46.75
5679;BME280;2862;52.560;13.566;2023-02-28T08:35:40;102372.59;;;6.85;43.63
5679;BME280;2862;52.560;13.566;2023-02-28T08:45:44;102376.63;;;6.73;48.09
5679;BME280;2862;52.560;13.566;2023-02-28T08:55:47;102380.59;;;5.94;43.19
5679;BME280;2862;52.560;13.566;2023-02-28T09:05:59;102380.53;;;6.43;43.08
5679;BME280;2862;52.560;13.566;2023-02-28T09:16:04;102384.72;;;6.03;43.00
5679;BME280;2862;52.560;13.566;2023-02-28T09:26:13;102378.94;;;6.15;42.98
5679;BME280;2862;52.560;13.566;2023-02-28T09:36:16;102377.94;;;6.18;41.15
5679;BME280;2862;52.560;13.566;2023-02-28T09:46:40;102385.19;;;7.22;37.88
5679;BME280;2862;52.560;13.566;2023-02-28T09:56:52;102380.97;;;6.30;39.14
5679;BME280;2862;52.560;13.566;2023-02-28T10:06:58;102387.41;;;6.47;39.45
5679;BME280;2862;52.560;13.566;2023-02-28T10:17:11;102391.88;;;6.46;41.10
5679;BME280;2862;52.560;13.566;2023-02-28T10:27:21;102389.78;;;6.09;40.93
5679;BME280;2862;52.560;13.566;2023-02-28T10:37:24;102390.69;;;5.83;42.19
5679;BME280;2862;52.560;13.566;2023-02-28T10:47:29;102384.88;;;5.23;42.65
5679;BME280;2862;52.560;13.566;2023-02-28T10:57:32;102369.22;;;5.16;44.40
5679;BME280;2862;52.560;13.566;2023-02-28T11:07:37;102355.66;;;5.73;42.99
5679;BME280;2862;52.560;13.566;2023-02-28T11:17:54;102346.16;;;5.43;43.13
5679;BME280;2862;52.560;13.566;2023-02-28T11:28:00;102347.75;;;5.23;42.79
5679;BME280;2862;52.560;13.566;2023-02-28T11:38:05;102346.44;;;5.60;42.55
5679;BME280;2862;52.560;13.566;2023-02-28T11:48:20;102355.94;;;5.17;42.25
5679;BME280;2862;52.560;13.566;2023-02-28T11:58:34;102340.03;;;5.16;42.71
5679;BME280;2862;52.560;13.566;2023-02-28T12:08:53;102338.78;;;4.76;43.38
5679;BME280;2862;52.560;13.566;2023-02-28T12:19:20;102327.56;;;4.93;42.62
5679;BME280;2862;52.560;13.566;2023-02-28T12:29:28;102311.50;;;4.99;43.39
5679;BME280;2862;52.560;13.566;2023-02-28T12:39:34;102287.47;;;5.28;43.48
5679;BME280;2862;52.560;13.566;2023-02-28T12:49:55;102267.59;;;5.40;42.32
5679;BME280;2862;52.560;13.566;2023-02-28T13:00:04;102247.78;;;5.49;42.52
5679;BME280;2862;52.560;13.566;2023-02-28T13:10:15;102245.22;;;5.47;42.31
5679;BME280;2862;52.560;13.566;2023-02-28T13:20:23;102247.69;;;5.52;42.12
5679;BME280;2862;52.560;13.566;2023-02-28T13:31:04;102246.16;;;5.45;42.10
5679;BME280;2862;52.560;13.566;2023-02-28T13:41:40;102243.94;;;5.34;41.81
5679;BME280;2862;52.560;13.566;2023-02-28T13:51:46;102242.25;;;5.55;42.33
5679;BME280;2862;52.560;13.566;2023-02-28T14:02:11;102225.53;;;5.76;42.13
5679;BME280;2862;52.560;13.566;2023-02-28T14:13:03;102233.19;;;5.60;42.34
5679;BME280;2862;52.560;13.566;2023-02-28T14:23:14;102233.75;;;5.47;42.69
5679;BME280;2862;52.560;13.566;2023-02-28T14:33:31;102223.28;;;5.42;43.49
5679;BME280;2862;52.560;13.566;2023-02-28T14:43:48;102222.81;;;5.54;43.16
5679;BME280;2862;52.560;13.566;2023-02-28T14:53:59;102211.69;;;5.45;43.56
5679;BME280;2862;52.560;13.566;2023-02-28T15:04:18;102206.97;;;5.53;43.97
5679;BME280;2862;52.560;13.566;2023-02-28T15:14:26;102202.47;;;5.31;43.36
5679;BME280;2862;52.560;13.566;2023-02-28T15:24:37;102197.31;;;5.28;44.16
5679;BME280;2862;52.560;13.566;2023-02-28T15:34:43;102198.63;;;5.17;44.18
5679;BME280;2862;52.560;13.566;2023-02-28T15:44:46;102188.91;;;5.16;44.56
5679;BME280;2862;52.560;13.566;2023-02-28T15:54:51;102194.88;;;4.99;45.39
5679;BME280;2862;52.560;13.566;2023-02-28T16:04:57;102198.84;;;4.86;46.03
5679;BME280;2862;52.560;13.566;2023-02-28T16:15:06;102204.53;;;4.50;46.99
5679;BME280;2862;52.560;13.566;2023-02-28T16:25:13;102202.75;;;4.50;47.08
5679;BME280;2862;52.560;13.566;2023-02-28T16:35:19;102201.44;;;4.37;48.02
5679;BME280;2862;52.560;13.566;2023-02-28T16:45:26;102200.22;;;4.21;48.95
5679;BME280;2862;52.560;13.566;2023-02-28T16:55:30;102197.84;;;4.13;50.04
5679;BME280;2862;52.560;13.566;2023-02-28T17:05:37;102203.31;;;4.07;50.31
5679;BME280;2862;52.560;13.566;2023-02-28T17:15:44;102217.09;;;3.90;51.14
5679;BME280;2862;52.560;13.566;2023-02-28T17:25:48;102217.97;;;3.91;51.65
5679;BME280;2862;52.560;13.566;2023-02-28T17:35:59;102220.88;;;3.82;51.62
5679;BME280;2862;52.560;13.566;2023-02-28T17:46:04;102209.56;;;3.77;51.90
5679;BME280;2862;52.560;13.566;2023-02-28T17:56:13;102220.25;;;3.73;52.26
5679;BME280;2862;52.560;13.566;2023-02-28T18:06:19;102223.03;;;3.69;52.25
5679;BME280;2862;52.560;13.566;2023-02-28T18:16:25;102216.22;;;3.62;53.10
5679;BME280;2862;52.560;13.566;2023-02-28T18:26:27;102232.41;;;3.51;53.34
5679;BME280;2862;52.560;13.566;2023-02-28T18:36:32;102250.13;;;3.47;52.47
5679;BME280;2862;52.560;13.566;2023-02-28T18:46:35;102260.25;;;3.32;52.88
5679;BME280;2862;52.560;13.566;2023-02-28T18:56:39;102258.06;;;3.16;53.25
5679;BME280;2862;52.560;13.566;2023-02-28T19:06:42;102254.16;;;2.99;54.08
5679;BME280;2862;52.560;13.566;2023-02-28T19:16:46;102247.56;;;2.81;55.79
5679;BME280;2862;52.560;13.566;2023-02-28T19:26:51;102255.28;;;2.56;56.67
5679;BME280;2862;52.560;13.566;2023-02-28T19:36:55;102260.09;;;2.38;57.14
5679;BME280;2862;52.560;13.566;2023-02-28T19:46:57;102255.38;;;2.51;56.71
5679;BME280;2862;52.560;13.566;2023-02-28T19:57:02;102242.59;;;2.34;57.88
5679;BME280;2862;52.560;13.566;2023-02-28T20:07:04;102252.44;;;2.28;58.26
5679;BME280;2862;52.560;13.566;2023-02-28T20:17:08;102252.53;;;2.23;58.02
5679;BME280;2862;52.560;13.566;2023-02-28T20:27:12;102251.88;;;2.15;58.68
5679;BME280;2862;52.560;13.566;2023-02-28T20:37:16;102244.22;;;2.04;59.52
5679;BME280;2862;52.560;13.566;2023-02-28T20:47:19;102232.34;;;1.85;60.73
5679;BME280;2862;52.560;13.566;2023-02-28T20:57:23;102242.41;;;1.68;61.51
5679;BME280;2862;52.560;13.566;2023-02-28T21:07:26;102226.59;;;1.68;61.58
5679;BME280;2862;52.560;13.566;2023-02-28T21:17:37;102231.13;;;1.61;62.87
5679;BME280;2862;52.560;13.566;2023-02-28T21:27:40;102236.91;;;1.38;64.03
5679;BME280;2862;52.560;13.566;2023-02-28T21:37:44;102228.41;;;1.24;64.93
5679;BME280;2862;52.560;13.566;2023-02-28T21:47:48;102241.66;;;1.19;66.12
5679;BME280;2862;52.560;13.566;2023-02-28T21:57:52;102231.19;;;1.16;66.33
5679;BME280;2862;52.560;13.566;2023-02-28T22:07:54;102243.13;;;0.89;68.49
5679;BME280;2862;52.560;13.566;2023-02-28T22:17:59;102241.50;;;0.82;68.68
5679;BME280;2862;52.560;13.566;2023-02-28T22:28:02;102255.22;;;0.99;66.24
5679;BME280;2862;52.560;13.566;2023-02-28T22:38:08;102248.28;;;0.95;66.68
5679;BME280;2862;52.560;13.566;2023-02-28T22:48:11;102253.66;;;0.89;67.52
5679;BME280;2862;52.560;13.566;2023-02-28T22:58:15;102272.25;;;0.82;68.61
5679;BME280;2862;52.560;13.566;2023-02-28T23:08:19;102271.38;;;0.79;68.77
5679;BME280;2862;52.560;13.566;2023-02-28T23:18:24;102287.44;;;0.66;68.73
5679;BME280;2862;52.560;13.566;2023-02-28T23:28:27;102291.59;;;0.77;67.85
5679;BME280;2862;52.560;13.566;2023-02-28T23:38:33;102278.69;;;0.64;68.38
5679;BME280;2862;52.560;13.566;2023-02-28T23:48:36;102269.63;;;0.29;71.03
5679;BME280;2862;52.560;13.566;2023-02-28T23:58:41;102272.25;;;0.29;71.07
